PWSweather.com
Personal Weather Stations
Station Observations
KB2SBX
Sugarloaf, Sugarloaf, PA 18249

SugarloafSugarloaf, PA 18249

Lat: 41.0126685, Lon: -76.1082041

Elevation: 1030

Station Type: WS-2080

http://sugarloafpaweather.webng.com/weather.shtml

High Low Average
Temperature 17.9°F-7.8°F 15.9°F-8.9°F 16.9°F-8.4°F
Dew Point 2.8°F-16.2°F 0.0°F-17.8°F 0.7°F-17.4°F
Winds 2.0 mph WNW3.2 mph WNW Calm Calm 0.4 mph 0.6 mph
Wind Gusts 8.0 mph12.9 mph 1.0 mph1.6 mph 2.3 mph3.7 mph
Humidity 52% 41% 47%
Pressure 30.25 in1024.40 in 30.22 in1023.40 in -
Precipitation 0.00 in0.00 in - -
Hour Temp Dew Point Humidity Winds Wind Gusts Pressure Precip Precip Rate Daily Precip Total
12:00 AM 10.0°F-12.2°C -5537.2°C 42% 1.0 mph ESE1.6 kmh ESE 13.0 mph20.9 kmh 30.22 in1023.4 mb 0.00 in0.0 mm 0.00 in/hr0.0 mm/hr 0.11 in2.8 mm
12:05 AM 9.8°F-12.3°C -5537.2°C 42% Calm Calm 2.0 mph3.2 kmh 30.22 in1023.4 mb 0.00 in0.0 mm 0.00 in/hr0.0 mm/hr 0.00 in0.0 mm
12:10 AM 9.6°F-12.4°C -5537.2°C 42% Calm Calm 15.0 mph24.1 kmh 30.22 in1023.4 mb 0.00 in0.0 mm 0.00 in/hr0.0 mm/hr 0.00 in0.0 mm
12:15 AM 9.6°F-12.4°C -5537.2°C 42% Calm Calm 10.0 mph16.1 kmh 30.23 in1023.7 mb 0.00 in0.0 mm 0.00 in/hr0.0 mm/hr 0.00 in0.0 mm
12:20 AM 9.6°F-12.4°C -5537.2°C 42% 3.0 mph WNW4.8 kmh WNW 7.0 mph11.3 kmh 30.22 in1023.4 mb 0.00 in0.0 mm 0.00 in/hr0.0 mm/hr 0.00 in0.0 mm
12:25 AM 9.6°F-12.4°C -5537.2°C 42% 2.0 mph W3.2 kmh W 8.0 mph12.9 kmh 30.22 in1023.4 mb 0.00 in0.0 mm 0.00 in/hr0.0 mm/hr 0.00 in0.0 mm
12:30 AM 9.6°F-12.4°C -5537.2°C 42% Calm Calm 7.0 mph11.3 kmh 30.22 in1023.4 mb 0.00 in0.0 mm 0.00 in/hr0.0 mm/hr 0.00 in0.0 mm
12:35 AM 9.5°F-12.5°C -5537.2°C 41% 4.0 mph WNW6.4 kmh WNW 14.0 mph22.5 kmh 30.23 in1023.7 mb 0.00 in0.0 mm 0.00 in/hr0.0 mm/hr 0.00 in0.0 mm
12:40 AM 9.5°F-12.5°C -5537.2°C 41% Calm Calm 4.0 mph6.4 kmh 30.22 in1023.4 mb 0.00 in0.0 mm 0.00 in/hr0.0 mm/hr 0.00 in0.0 mm
12:45 AM 9.3°F-12.6°C -5537.2°C 41% 2.0 mph NW3.2 kmh NW 6.0 mph9.7 kmh 30.22 in1023.4 mb 0.00 in0.0 mm 0.00 in/hr0.0 mm/hr 0.00 in0.0 mm
12:50 AM 9.1°F-12.7°C -5537.2°C 41% 2.0 mph SSW3.2 kmh SSW 6.0 mph9.7 kmh 30.23 in1023.7 mb 0.00 in0.0 mm 0.00 in/hr0.0 mm/hr 0.00 in0.0 mm
12:55 AM 8.9°F-12.8°C -5537.2°C 41% 4.0 mph ESE6.4 kmh ESE 8.0 mph12.9 kmh 30.22 in1023.4 mb 0.00 in0.0 mm 0.00 in/hr0.0 mm/hr 0.00 in0.0 mm
01:00 AM 8.9°F-12.8°C -5537.2°C 41% 2.0 mph ESE3.2 kmh ESE 8.0 mph12.9 kmh 30.23 in1023.7 mb 0.00 in0.0 mm 0.00 in/hr0.0 mm/hr 0.00 in0.0 mm
01:05 AM 8.9°F-12.8°C -5537.2°C 41% 2.0 mph ESE3.2 kmh ESE 8.0 mph12.9 kmh 30.23 in1023.7 mb 0.00 in0.0 mm 0.00 in/hr0.0 mm/hr 0.00 in0.0 mm
01:10 AM 8.7°F-12.9°C -5537.2°C 41% 4.0 mph WNW6.4 kmh WNW 8.0 mph12.9 kmh 30.23 in1023.7 mb 0.00 in0.0 mm 0.00 in/hr0.0 mm/hr 0.00 in0.0 mm
01:15 AM 8.7°F-12.9°C -5537.2°C 41% 1.0 mph ESE1.6 kmh ESE 4.0 mph6.4 kmh 30.23 in1023.7 mb 0.00 in0.0 mm 0.00 in/hr0.0 mm/hr 0.00 in0.0 mm
01:20 AM 8.6°F-13.0°C -5537.2°C 41% 4.0 mph SSW6.4 kmh SSW 8.0 mph12.9 kmh 30.23 in1023.7 mb 0.00 in0.0 mm 0.00 in/hr0.0 mm/hr 0.00 in0.0 mm
01:25 AM 8.6°F-13.0°C -5537.2°C 41% Calm Calm 8.0 mph12.9 kmh 30.23 in1023.7 mb 0.00 in0.0 mm 0.00 in/hr0.0 mm/hr 0.00 in0.0 mm
01:30 AM 8.4°F-13.1°C -5537.2°C 42% Calm Calm 8.0 mph12.9 kmh 30.23 in1023.7 mb 0.00 in0.0 mm 0.00 in/hr0.0 mm/hr 0.00 in0.0 mm
01:35 AM 8.2°F-13.2°C -5537.2°C 42% 2.0 mph ENE3.2 kmh ENE 8.0 mph12.9 kmh 30.23 in1023.7 mb 0.00 in0.0 mm 0.00 in/hr0.0 mm/hr 0.00 in0.0 mm
01:40 AM 8.2°F-13.2°C -5537.2°C 42% 1.0 mph SSW1.6 kmh SSW 4.0 mph6.4 kmh 30.24 in1024.0 mb 0.00 in0.0 mm 0.00 in/hr0.0 mm/hr 0.00 in0.0 mm
01:45 AM 8.0°F-13.3°C -5537.2°C 42% 2.0 mph SW3.2 kmh SW 5.0 mph8.0 kmh 30.23 in1023.7 mb 0.00 in0.0 mm 0.00 in/hr0.0 mm/hr 0.00 in0.0 mm
01:50 AM 7.8°F-13.4°C -5537.2°C 42% 1.0 mph ENE1.6 kmh ENE 4.0 mph6.4 kmh 30.24 in1024.0 mb 0.00 in0.0 mm 0.00 in/hr0.0 mm/hr 0.00 in0.0 mm
01:55 AM 7.8°F-13.4°C -5537.2°C 42% 2.0 mph W3.2 kmh W 6.0 mph9.7 kmh 30.24 in1024.0 mb 0.00 in0.0 mm 0.00 in/hr0.0 mm/hr 0.00 in0.0 mm
02:00 AM 7.7°F-13.5°C -5537.2°C 42% 4.0 mph WSW6.4 kmh WSW 7.0 mph11.3 kmh 30.24 in1024.0 mb 0.00 in0.0 mm 0.00 in/hr0.0 mm/hr 0.00 in0.0 mm
02:05 AM 7.7°F-13.5°C -5537.2°C 42% 2.0 mph NNE3.2 kmh NNE 7.0 mph11.3 kmh 30.24 in1024.0 mb 0.00 in0.0 mm 0.00 in/hr0.0 mm/hr 0.00 in0.0 mm
02:10 AM 7.7°F-13.5°C -5537.2°C 42% 2.0 mph SSE3.2 kmh SSE 5.0 mph8.0 kmh 30.24 in1024.0 mb 0.00 in0.0 mm 0.00 in/hr0.0 mm/hr 0.00 in0.0 mm
02:15 AM 7.5°F-13.6°C -5537.2°C 42% 1.0 mph WNW1.6 kmh WNW 8.0 mph12.9 kmh 30.24 in1024.0 mb 0.00 in0.0 mm 0.00 in/hr0.0 mm/hr 0.00 in0.0 mm
02:20 AM 7.3°F-13.7°C -5537.2°C 42% 2.0 mph SSE3.2 kmh SSE 3.0 mph4.8 kmh 30.24 in1024.0 mb 0.00 in0.0 mm 0.00 in/hr0.0 mm/hr 0.00 in0.0 mm
02:25 AM 7.3°F-13.7°C -5537.2°C 42% Calm Calm 3.0 mph4.8 kmh 30.25 in1024.4 mb 0.00 in0.0 mm 0.00 in/hr0.0 mm/hr 0.00 in0.0 mm
02:30 AM 7.3°F-13.7°C -5537.2°C 42% Calm Calm 7.0 mph11.3 kmh 30.25 in1024.4 mb 0.00 in0.0 mm 0.00 in/hr0.0 mm/hr 0.00 in0.0 mm
02:35 AM 7.1°F-13.8°C -5537.2°C 43% 1.0 mph SSW1.6 kmh SSW 5.0 mph8.0 kmh 30.25 in1024.4 mb 0.00 in0.0 mm 0.00 in/hr0.0 mm/hr 0.00 in0.0 mm
02:40 AM 7.1°F-13.8°C -5537.2°C 43% 2.0 mph SSE3.2 kmh SSE 4.0 mph6.4 kmh 30.24 in1024.0 mb 0.00 in0.0 mm 0.00 in/hr0.0 mm/hr 0.00 in0.0 mm
02:45 AM 7.1°F-13.8°C -5537.2°C 43% Calm Calm 6.0 mph9.7 kmh 30.24 in1024.0 mb 0.00 in0.0 mm 0.00 in/hr0.0 mm/hr 0.00 in0.0 mm
02:50 AM 7.1°F-13.8°C -5537.2°C 43% 2.0 mph NNE3.2 kmh NNE 8.0 mph12.9 kmh 30.24 in1024.0 mb 0.00 in0.0 mm 0.00 in/hr0.0 mm/hr 0.00 in0.0 mm
02:55 AM 6.9°F-13.9°C -5537.2°C 43% 4.0 mph NW6.4 kmh NW 10.0 mph16.1 kmh 30.25 in1024.4 mb 0.00 in0.0 mm 0.00 in/hr0.0 mm/hr 0.00 in0.0 mm
03:00 AM 6.9°F-13.9°C -5537.2°C 42% 1.0 mph SSE1.6 kmh SSE 3.0 mph4.8 kmh 30.25 in1024.4 mb 0.00 in0.0 mm 0.00 in/hr0.0 mm/hr 0.00 in0.0 mm
03:05 AM 6.9°F-13.9°C -5537.2°C 42% 1.0 mph SSE1.6 kmh SSE 3.0 mph4.8 kmh 30.25 in1024.4 mb 0.00 in0.0 mm 0.00 in/hr0.0 mm/hr 0.00 in0.0 mm
03:10 AM 6.7°F-14.1°C -5537.2°C 42% 2.0 mph WSW3.2 kmh WSW 7.0 mph11.3 kmh 30.25 in1024.4 mb 0.00 in0.0 mm 0.00 in/hr0.0 mm/hr 0.00 in0.0 mm
03:15 AM 6.6°F-14.1°C -5537.2°C 44% 2.0 mph ENE3.2 kmh ENE 3.0 mph4.8 kmh 30.25 in1024.4 mb 0.00 in0.0 mm 0.00 in/hr0.0 mm/hr 0.00 in0.0 mm
03:20 AM 6.4°F-14.2°C -5537.2°C 44% 2.0 mph W3.2 kmh W 4.0 mph6.4 kmh 30.25 in1024.4 mb 0.00 in0.0 mm 0.00 in/hr0.0 mm/hr 0.00 in0.0 mm
03:25 AM 6.4°F-14.2°C -5537.2°C 44% Calm Calm 4.0 mph6.4 kmh 30.25 in1024.4 mb 0.00 in0.0 mm 0.00 in/hr0.0 mm/hr 0.00 in0.0 mm
03:30 AM 6.2°F-14.3°C -11.0°F-23.9°C 44% 2.0 mph NNW3.2 kmh NNW 4.0 mph6.4 kmh 30.25 in1024.4 mb 0.00 in0.0 mm 0.00 in/hr0.0 mm/hr 0.00 in0.0 mm
03:35 AM 6.2°F-14.3°C -5537.2°C 45% 2.0 mph NNW3.2 kmh NNW 6.0 mph9.7 kmh 30.25 in1024.4 mb 0.00 in0.0 mm 0.00 in/hr0.0 mm/hr 0.00 in0.0 mm
03:40 AM 6.2°F-14.3°C -5537.2°C 45% Calm Calm 4.0 mph6.4 kmh 30.24 in1024.0 mb 0.00 in0.0 mm 0.00 in/hr0.0 mm/hr 0.00 in0.0 mm
03:45 AM 6.0°F-14.4°C -5537.2°C 45% 2.0 mph E3.2 kmh E 8.0 mph12.9 kmh 30.25 in1024.4 mb 0.00 in0.0 mm 0.00 in/hr0.0 mm/hr 0.00 in0.0 mm
03:50 AM 6.0°F-14.4°C -5537.2°C 45% 1.0 mph WSW1.6 kmh WSW 6.0 mph9.7 kmh 30.25 in1024.4 mb 0.00 in0.0 mm 0.00 in/hr0.0 mm/hr 0.00 in0.0 mm
03:55 AM 6.0°F-14.4°C -5537.2°C 45% 2.0 mph ESE3.2 kmh ESE 4.0 mph6.4 kmh 30.25 in1024.4 mb 0.00 in0.0 mm 0.00 in/hr0.0 mm/hr 0.00 in0.0 mm
04:00 AM 5.8°F-14.6°C -5537.2°C 45% 4.0 mph SW6.4 kmh SW 7.0 mph11.3 kmh 30.26 in1024.7 mb 0.00 in0.0 mm 0.00 in/hr0.0 mm/hr 0.00 in0.0 mm
04:05 AM 5.8°F-14.6°C -5537.2°C 45% 2.0 mph SW3.2 kmh SW 10.0 mph16.1 kmh 30.26 in1024.7 mb 0.00 in0.0 mm 0.00 in/hr0.0 mm/hr 0.00 in0.0 mm
04:10 AM 5.8°F-14.6°C -5537.2°C 45% 3.0 mph WSW4.8 kmh WSW 6.0 mph9.7 kmh 30.26 in1024.7 mb 0.00 in0.0 mm 0.00 in/hr0.0 mm/hr 0.00 in0.0 mm
04:15 AM 5.8°F-14.6°C -5537.2°C 45% 1.0 mph S1.6 kmh S 11.0 mph17.7 kmh 30.25 in1024.4 mb 0.00 in0.0 mm 0.00 in/hr0.0 mm/hr 0.00 in0.0 mm
04:20 AM 5.8°F-14.6°C -5537.2°C 45% 4.0 mph ENE6.4 kmh ENE 11.0 mph17.7 kmh 30.25 in1024.4 mb 0.00 in0.0 mm 0.00 in/hr0.0 mm/hr 0.00 in0.0 mm
04:25 AM 5.8°F-14.6°C -5537.2°C 45% 2.0 mph NNE3.2 kmh NNE 5.0 mph8.0 kmh 30.26 in1024.7 mb 0.00 in0.0 mm 0.00 in/hr0.0 mm/hr 0.00 in0.0 mm
04:30 AM 5.8°F-14.6°C -5537.2°C 45% 2.0 mph SSW3.2 kmh SSW 7.0 mph11.3 kmh 30.26 in1024.7 mb 0.00 in0.0 mm 0.00 in/hr0.0 mm/hr 0.00 in0.0 mm
04:35 AM 5.8°F-14.6°C -5537.2°C 45% 2.0 mph SE3.2 kmh SE 5.0 mph8.0 kmh 30.26 in1024.7 mb 0.00 in0.0 mm 0.00 in/hr0.0 mm/hr 0.00 in0.0 mm
04:40 AM 5.7°F-14.6°C -11.0°F-23.9°C 45% Calm Calm 4.0 mph6.4 kmh 30.26 in1024.7 mb 0.00 in0.0 mm 0.00 in/hr0.0 mm/hr 0.00 in0.0 mm
04:45 AM 5.5°F-14.7°C -5537.2°C 45% 2.0 mph SSE3.2 kmh SSE 5.0 mph8.0 kmh 30.25 in1024.4 mb 0.00 in0.0 mm 0.00 in/hr0.0 mm/hr 0.00 in0.0 mm
04:50 AM 5.3°F-14.8°C -5537.2°C 45% 3.0 mph WSW4.8 kmh WSW 8.0 mph12.9 kmh 30.25 in1024.4 mb 0.00 in0.0 mm 0.00 in/hr0.0 mm/hr 0.00 in0.0 mm
04:55 AM 5.3°F-14.8°C -5537.2°C 45% 2.0 mph SSE3.2 kmh SSE 5.0 mph8.0 kmh 30.25 in1024.4 mb 0.00 in0.0 mm 0.00 in/hr0.0 mm/hr 0.00 in0.0 mm
05:00 AM 5.3°F-14.8°C -5537.2°C 46% 2.0 mph SSW3.2 kmh SSW 8.0 mph12.9 kmh 30.25 in1024.4 mb 0.00 in0.0 mm 0.00 in/hr0.0 mm/hr 0.00 in0.0 mm
05:05 AM 5.3°F-14.8°C -5537.2°C 46% 2.0 mph SSW3.2 kmh SSW 4.0 mph6.4 kmh 30.26 in1024.7 mb 0.00 in0.0 mm 0.00 in/hr0.0 mm/hr 0.00 in0.0 mm
05:10 AM 5.1°F-14.9°C -5537.2°C 46% 2.0 mph SSW3.2 kmh SSW 4.0 mph6.4 kmh 30.26 in1024.7 mb 0.00 in0.0 mm 0.00 in/hr0.0 mm/hr 0.00 in0.0 mm
05:15 AM 5.1°F-14.9°C -5537.2°C 46% Calm Calm 4.0 mph6.4 kmh 30.25 in1024.4 mb 0.00 in0.0 mm 0.00 in/hr0.0 mm/hr 0.00 in0.0 mm
05:20 AM 5.0°F-15.0°C -5537.2°C 46% Calm Calm 2.0 mph3.2 kmh 30.25 in1024.4 mb 0.00 in0.0 mm 0.00 in/hr0.0 mm/hr 0.00 in0.0 mm
05:25 AM 5.0°F-15.0°C -5537.2°C 46% 2.0 mph NNE3.2 kmh NNE 8.0 mph12.9 kmh 30.26 in1024.7 mb 0.00 in0.0 mm 0.00 in/hr0.0 mm/hr 0.00 in0.0 mm
05:30 AM 5.0°F-15.0°C -5537.2°C 46% Calm Calm 4.0 mph6.4 kmh 30.26 in1024.7 mb 0.00 in0.0 mm 0.00 in/hr0.0 mm/hr 0.00 in0.0 mm
05:35 AM 5.0°F-15.0°C -5537.2°C 46% Calm Calm 3.0 mph4.8 kmh 30.25 in1024.4 mb 0.00 in0.0 mm 0.00 in/hr0.0 mm/hr 0.00 in0.0 mm
05:40 AM 4.8°F-15.1°C -11.0°F-23.9°C 47% 2.0 mph S3.2 kmh S 4.0 mph6.4 kmh 30.25 in1024.4 mb 0.00 in0.0 mm 0.00 in/hr0.0 mm/hr 0.00 in0.0 mm
05:45 AM 4.6°F-15.2°C -5537.2°C 47% Calm Calm 2.0 mph3.2 kmh 30.26 in1024.7 mb 0.00 in0.0 mm 0.00 in/hr0.0 mm/hr 0.00 in0.0 mm
05:50 AM 4.4°F-15.3°C -5537.2°C 47% 2.0 mph SSE3.2 kmh SSE 4.0 mph6.4 kmh 30.26 in1024.7 mb 0.00 in0.0 mm 0.00 in/hr0.0 mm/hr 0.00 in0.0 mm
05:55 AM 4.6°F-15.2°C -5537.2°C 48% Calm Calm 6.0 mph9.7 kmh 30.27 in1025.1 mb 0.00 in0.0 mm 0.00 in/hr0.0 mm/hr 0.00 in0.0 mm
06:00 AM 4.6°F-15.2°C -5537.2°C 48% 1.0 mph NE1.6 kmh NE 2.0 mph3.2 kmh 30.26 in1024.7 mb 0.00 in0.0 mm 0.00 in/hr0.0 mm/hr 0.00 in0.0 mm
06:05 AM 4.8°F-15.1°C -5537.2°C 48% 2.0 mph SSE3.2 kmh SSE 4.0 mph6.4 kmh 30.26 in1024.7 mb 0.00 in0.0 mm 0.00 in/hr0.0 mm/hr 0.00 in0.0 mm
06:10 AM 4.6°F-15.2°C -5537.2°C 48% Calm Calm 3.0 mph4.8 kmh 30.27 in1025.1 mb 0.00 in0.0 mm 0.00 in/hr0.0 mm/hr 0.00 in0.0 mm
06:15 AM 4.6°F-15.2°C -5537.2°C 48% Calm Calm 9.0 mph14.5 kmh 30.27 in1025.1 mb 0.00 in0.0 mm 0.00 in/hr0.0 mm/hr 0.00 in0.0 mm
06:20 AM 4.6°F-15.2°C -5537.2°C 48% 2.0 mph ESE3.2 kmh ESE 4.0 mph6.4 kmh 30.27 in1025.1 mb 0.00 in0.0 mm 0.00 in/hr0.0 mm/hr 0.00 in0.0 mm
06:25 AM 4.8°F-15.1°C -5537.2°C 48% 2.0 mph SE3.2 kmh SE 7.0 mph11.3 kmh 30.27 in1025.1 mb 0.00 in0.0 mm 0.00 in/hr0.0 mm/hr 0.00 in0.0 mm
06:30 AM 4.8°F-15.1°C -5537.2°C 48% Calm Calm 6.0 mph9.7 kmh 30.28 in1025.4 mb 0.00 in0.0 mm 0.00 in/hr0.0 mm/hr 0.00 in0.0 mm
06:35 AM 4.8°F-15.1°C -5537.2°C 48% 1.0 mph SSE1.6 kmh SSE 4.0 mph6.4 kmh 30.28 in1025.4 mb 0.00 in0.0 mm 0.00 in/hr0.0 mm/hr 0.00 in0.0 mm
06:40 AM 4.6°F-15.2°C -5537.2°C 48% 2.0 mph SSW3.2 kmh SSW 4.0 mph6.4 kmh 30.29 in1025.7 mb 0.00 in0.0 mm 0.00 in/hr0.0 mm/hr 0.00 in0.0 mm
06:45 AM 4.4°F-15.3°C -5537.2°C 48% 1.0 mph NE1.6 kmh NE 3.0 mph4.8 kmh 30.29 in1025.7 mb 0.00 in0.0 mm 0.00 in/hr0.0 mm/hr 0.00 in0.0 mm
06:50 AM 4.4°F-15.3°C -5537.2°C 48% Calm Calm 5.0 mph8.0 kmh 30.29 in1025.7 mb 0.00 in0.0 mm 0.00 in/hr0.0 mm/hr 0.00 in0.0 mm
06:55 AM 4.4°F-15.3°C -5537.2°C 48% Calm Calm 5.0 mph8.0 kmh 30.30 in1026.1 mb 0.00 in0.0 mm 0.00 in/hr0.0 mm/hr 0.00 in0.0 mm
07:00 AM 4.4°F-15.3°C -5537.2°C 48% Calm Calm 4.0 mph6.4 kmh 30.30 in1026.1 mb 0.00 in0.0 mm 0.00 in/hr0.0 mm/hr 0.00 in0.0 mm
07:05 AM 4.4°F-15.3°C -5537.2°C 48% Calm Calm 2.0 mph3.2 kmh 30.30 in1026.1 mb 0.00 in0.0 mm 0.00 in/hr0.0 mm/hr 0.00 in0.0 mm
07:10 AM 4.1°F-15.5°C -5537.2°C 48% 1.0 mph WSW1.6 kmh WSW 8.0 mph12.9 kmh 30.31 in1026.4 mb 0.00 in0.0 mm 0.00 in/hr0.0 mm/hr 0.00 in0.0 mm
07:15 AM 3.9°F-15.6°C -5537.2°C 48% 2.0 mph ESE3.2 kmh ESE 4.0 mph6.4 kmh 30.31 in1026.4 mb 0.00 in0.0 mm 0.00 in/hr0.0 mm/hr 0.00 in0.0 mm
07:20 AM 3.9°F-15.6°C -11.0°F-23.9°C 49% 2.0 mph SW3.2 kmh SW 7.0 mph11.3 kmh 30.31 in1026.4 mb 0.00 in0.0 mm 0.00 in/hr0.0 mm/hr 0.00 in0.0 mm
07:25 AM 3.7°F-15.7°C -5537.2°C 49% Calm Calm 7.0 mph11.3 kmh 30.31 in1026.4 mb 0.00 in0.0 mm 0.00 in/hr0.0 mm/hr 0.00 in0.0 mm
07:30 AM 3.7°F-15.7°C -5537.2°C 49% Calm Calm 7.0 mph11.3 kmh 30.31 in1026.4 mb 0.00 in0.0 mm 0.00 in/hr0.0 mm/hr 0.00 in0.0 mm
07:35 AM 3.7°F-15.7°C -5537.2°C 50% 3.0 mph WNW4.8 kmh WNW 5.0 mph8.0 kmh 30.32 in1026.8 mb 0.00 in0.0 mm 0.00 in/hr0.0 mm/hr 0.00 in0.0 mm
07:40 AM 3.7°F-15.7°C -5537.2°C 50% 4.0 mph SSE6.4 kmh SSE 6.0 mph9.7 kmh 30.31 in1026.4 mb 0.00 in0.0 mm 0.00 in/hr0.0 mm/hr 0.00 in0.0 mm
07:45 AM 3.7°F-15.7°C -5537.2°C 51% 2.0 mph SSW3.2 kmh SSW 6.0 mph9.7 kmh 30.31 in1026.4 mb 0.00 in0.0 mm 0.00 in/hr0.0 mm/hr 0.00 in0.0 mm
07:50 AM 4.1°F-15.5°C -10.0°F-23.3°C 51% 2.0 mph WSW3.2 kmh WSW 12.0 mph19.3 kmh 30.32 in1026.8 mb 0.00 in0.0 mm 0.00 in/hr0.0 mm/hr 0.00 in0.0 mm
07:55 AM 4.2°F-15.4°C -5537.2°C 51% 4.0 mph SSW6.4 kmh SSW 8.0 mph12.9 kmh 30.32 in1026.8 mb 0.00 in0.0 mm 0.00 in/hr0.0 mm/hr 0.00 in0.0 mm
08:00 AM 4.4°F-15.3°C -5537.2°C 51% 2.0 mph WNW3.2 kmh WNW 7.0 mph11.3 kmh 30.32 in1026.8 mb 0.00 in0.0 mm 0.00 in/hr0.0 mm/hr 0.00 in0.0 mm
08:05 AM 4.8°F-15.1°C -5537.2°C 51% 3.0 mph WNW4.8 kmh WNW 8.0 mph12.9 kmh 30.32 in1026.8 mb 0.00 in0.0 mm 0.00 in/hr0.0 mm/hr 0.00 in0.0 mm
08:10 AM 5.0°F-15.0°C -5537.2°C 50% 4.0 mph WSW6.4 kmh WSW 8.0 mph12.9 kmh 30.33 in1027.1 mb 0.00 in0.0 mm 0.00 in/hr0.0 mm/hr 0.00 in0.0 mm
08:15 AM 5.1°F-14.9°C -5537.2°C 50% 2.0 mph WNW3.2 kmh WNW 4.0 mph6.4 kmh 30.32 in1026.8 mb 0.00 in0.0 mm 0.00 in/hr0.0 mm/hr 0.00 in0.0 mm
08:20 AM 5.3°F-14.8°C -5537.2°C 50% 3.0 mph NNW4.8 kmh NNW 6.0 mph9.7 kmh 30.32 in1026.8 mb 0.00 in0.0 mm 0.00 in/hr0.0 mm/hr 0.00 in0.0 mm
08:25 AM 5.5°F-14.7°C -5537.2°C 49% 4.0 mph WSW6.4 kmh WSW 7.0 mph11.3 kmh 30.33 in1027.1 mb 0.00 in0.0 mm 0.00 in/hr0.0 mm/hr 0.00 in0.0 mm
08:30 AM 5.7°F-14.6°C -5537.2°C 49% 4.0 mph ESE6.4 kmh ESE 11.0 mph17.7 kmh 30.33 in1027.1 mb 0.00 in0.0 mm 0.00 in/hr0.0 mm/hr 0.00 in0.0 mm
08:35 AM 5.7°F-14.6°C -5537.2°C 49% 4.0 mph NNE6.4 kmh NNE 6.0 mph9.7 kmh 30.33 in1027.1 mb 0.00 in0.0 mm 0.00 in/hr0.0 mm/hr 0.00 in0.0 mm
08:40 AM 6.0°F-14.4°C -9.0°F-22.8°C 49% 3.0 mph SSW4.8 kmh SSW 7.0 mph11.3 kmh 30.33 in1027.1 mb 0.00 in0.0 mm 0.00 in/hr0.0 mm/hr 0.00 in0.0 mm
08:45 AM 6.0°F-14.4°C -5537.2°C 48% 2.0 mph ESE3.2 kmh ESE 8.0 mph12.9 kmh 30.33 in1027.1 mb 0.00 in0.0 mm 0.00 in/hr0.0 mm/hr 0.00 in0.0 mm
08:50 AM 6.4°F-14.2°C -5537.2°C 48% 2.0 mph SW3.2 kmh SW 11.0 mph17.7 kmh 30.32 in1026.8 mb 0.00 in0.0 mm 0.00 in/hr0.0 mm/hr 0.00 in0.0 mm
08:55 AM 6.6°F-14.1°C -5537.2°C 48% 2.0 mph S3.2 kmh S 6.0 mph9.7 kmh 30.32 in1026.8 mb 0.00 in0.0 mm 0.00 in/hr0.0 mm/hr 0.00 in0.0 mm
09:00 AM 6.7°F-14.1°C -5537.2°C 47% 2.0 mph SW3.2 kmh SW 6.0 mph9.7 kmh 30.32 in1026.8 mb 0.00 in0.0 mm 0.00 in/hr0.0 mm/hr 0.00 in0.0 mm
09:05 AM 6.7°F-14.1°C -5537.2°C 47% 2.0 mph SW3.2 kmh SW 5.0 mph8.0 kmh 30.32 in1026.8 mb 0.00 in0.0 mm 0.00 in/hr0.0 mm/hr 0.00 in0.0 mm
09:10 AM 7.7°F-13.5°C -5537.2°C 47% 2.0 mph NNW3.2 kmh NNW 5.0 mph8.0 kmh 30.32 in1026.8 mb 0.00 in0.0 mm 0.00 in/hr0.0 mm/hr 0.00 in0.0 mm
09:15 AM 8.0°F-13.3°C -8.0°F-22.2°C 47% 2.0 mph ESE3.2 kmh ESE 5.0 mph8.0 kmh 30.32 in1026.8 mb 0.00 in0.0 mm 0.00 in/hr0.0 mm/hr 0.00 in0.0 mm
09:20 AM 8.4°F-13.1°C -5537.2°C 46% 1.0 mph W1.6 kmh W 7.0 mph11.3 kmh 30.33 in1027.1 mb 0.00 in0.0 mm 0.00 in/hr0.0 mm/hr 0.00 in0.0 mm
09:25 AM 8.9°F-12.8°C -5537.2°C 45% 2.0 mph NW3.2 kmh NW 4.0 mph6.4 kmh 30.33 in1027.1 mb 0.00 in0.0 mm 0.00 in/hr0.0 mm/hr 0.00 in0.0 mm
09:30 AM 9.3°F-12.6°C -5537.2°C 44% 4.0 mph SE6.4 kmh SE 7.0 mph11.3 kmh 30.33 in1027.1 mb 0.00 in0.0 mm 0.00 in/hr0.0 mm/hr 0.00 in0.0 mm
09:35 AM 9.6°F-12.4°C -5537.2°C 44% 6.0 mph WSW9.7 kmh WSW 9.0 mph14.5 kmh 30.33 in1027.1 mb 0.00 in0.0 mm 0.00 in/hr0.0 mm/hr 0.00 in0.0 mm
09:40 AM 10.0°F-12.2°C -8.0°F-22.2°C 43% Calm Calm 5.0 mph8.0 kmh 30.32 in1026.8 mb 0.00 in0.0 mm 0.00 in/hr0.0 mm/hr 0.00 in0.0 mm
09:45 AM 10.4°F-12.0°C -5537.2°C 47% Calm Calm 4.0 mph6.4 kmh 30.32 in1026.8 mb 0.00 in0.0 mm 0.00 in/hr0.0 mm/hr 0.00 in0.0 mm
09:50 AM 11.2°F-11.6°C -5.0°F-20.6°C 47% 1.0 mph NNE1.6 kmh NNE 3.0 mph4.8 kmh 30.32 in1026.8 mb 0.00 in0.0 mm 0.00 in/hr0.0 mm/hr 0.00 in0.0 mm
09:55 AM 11.6°F-11.3°C -5537.2°C 46% 2.0 mph WSW3.2 kmh WSW 4.0 mph6.4 kmh 30.32 in1026.8 mb 0.00 in0.0 mm 0.00 in/hr0.0 mm/hr 0.00 in0.0 mm
10:00 AM 12.2°F-11.0°C -5537.2°C 45% Calm Calm 4.0 mph6.4 kmh 30.32 in1026.8 mb 0.00 in0.0 mm 0.00 in/hr0.0 mm/hr 0.00 in0.0 mm
10:05 AM 12.7°F-10.7°C -5537.2°C 45% 3.0 mph SW4.8 kmh SW 4.0 mph6.4 kmh 30.31 in1026.4 mb 0.00 in0.0 mm 0.00 in/hr0.0 mm/hr 0.00 in0.0 mm
10:10 AM 12.7°F-10.7°C -5537.2°C 44% 3.0 mph SSW4.8 kmh SSW 8.0 mph12.9 kmh 30.32 in1026.8 mb 0.00 in0.0 mm 0.00 in/hr0.0 mm/hr 0.00 in0.0 mm
10:15 AM 12.9°F-10.6°C -5537.2°C 44% 2.0 mph WNW3.2 kmh WNW 8.0 mph12.9 kmh 30.32 in1026.8 mb 0.00 in0.0 mm 0.00 in/hr0.0 mm/hr 0.00 in0.0 mm
10:20 AM 13.6°F-10.2°C -5537.2°C 44% Calm Calm 4.0 mph6.4 kmh 30.31 in1026.4 mb 0.00 in0.0 mm 0.00 in/hr0.0 mm/hr 0.00 in0.0 mm
10:25 AM 14.1°F-9.9°C -5537.2°C 43% 2.0 mph ESE3.2 kmh ESE 4.0 mph6.4 kmh 30.31 in1026.4 mb 0.00 in0.0 mm 0.00 in/hr0.0 mm/hr 0.00 in0.0 mm
10:30 AM 14.1°F-9.9°C -5537.2°C 43% 2.0 mph WSW3.2 kmh WSW 6.0 mph9.7 kmh 30.31 in1026.4 mb 0.00 in0.0 mm 0.00 in/hr0.0 mm/hr 0.00 in0.0 mm
10:35 AM 14.5°F-9.7°C -5537.2°C 42% 1.0 mph WSW1.6 kmh WSW 5.0 mph8.0 kmh 30.31 in1026.4 mb 0.00 in0.0 mm 0.00 in/hr0.0 mm/hr 0.00 in0.0 mm
10:40 AM 14.9°F-9.5°C -4.0°F-20.0°C 42% 1.0 mph NW1.6 kmh NW 4.0 mph6.4 kmh 30.31 in1026.4 mb 0.00 in0.0 mm 0.00 in/hr0.0 mm/hr 0.00 in0.0 mm
10:45 AM 15.2°F-9.3°C -5537.2°C 42% 2.0 mph WNW3.2 kmh WNW 4.0 mph6.4 kmh 30.31 in1026.4 mb 0.00 in0.0 mm 0.00 in/hr0.0 mm/hr 0.00 in0.0 mm
10:50 AM 15.6°F-9.1°C -5537.2°C 42% 4.0 mph WNW6.4 kmh WNW 5.0 mph8.0 kmh 30.32 in1026.8 mb 0.00 in0.0 mm 0.00 in/hr0.0 mm/hr 0.00 in0.0 mm
10:55 AM 15.8°F-9.0°C -5537.2°C 41% 2.0 mph W3.2 kmh W 5.0 mph8.0 kmh 30.31 in1026.4 mb 0.00 in0.0 mm 0.00 in/hr0.0 mm/hr 0.00 in0.0 mm
11:00 AM 16.1°F-8.8°C -5537.2°C 41% 2.0 mph WNW3.2 kmh WNW 7.0 mph11.3 kmh 30.31 in1026.4 mb 0.00 in0.0 mm 0.00 in/hr0.0 mm/hr 0.00 in0.0 mm
11:05 AM 16.1°F-8.8°C -5537.2°C 41% 2.0 mph WNW3.2 kmh WNW 4.0 mph6.4 kmh 30.30 in1026.1 mb 0.00 in0.0 mm 0.00 in/hr0.0 mm/hr 0.00 in0.0 mm
11:10 AM 17.0°F-8.3°C -5537.2°C 40% 3.0 mph SSE4.8 kmh SSE 6.0 mph9.7 kmh 30.30 in1026.1 mb 0.00 in0.0 mm 0.00 in/hr0.0 mm/hr 0.00 in0.0 mm
11:15 AM 17.6°F-8.0°C -5537.2°C 39% 2.0 mph W3.2 kmh W 5.0 mph8.0 kmh 30.30 in1026.1 mb 0.00 in0.0 mm 0.00 in/hr0.0 mm/hr 0.00 in0.0 mm
11:20 AM 17.2°F-8.2°C -5537.2°C 39% 1.0 mph WNW1.6 kmh WNW 13.0 mph20.9 kmh 30.30 in1026.1 mb 0.00 in0.0 mm 0.00 in/hr0.0 mm/hr 0.00 in0.0 mm
11:25 AM 17.2°F-8.2°C -5537.2°C 39% 3.0 mph WSW4.8 kmh WSW 10.0 mph16.1 kmh 30.29 in1025.7 mb 0.00 in0.0 mm 0.00 in/hr0.0 mm/hr 0.00 in0.0 mm
11:30 AM 17.6°F-8.0°C -5537.2°C 38% 4.0 mph WNW6.4 kmh WNW 8.0 mph12.9 kmh 30.29 in1025.7 mb 0.00 in0.0 mm 0.00 in/hr0.0 mm/hr 0.00 in0.0 mm
11:35 AM 17.9°F-7.8°C -5537.2°C 38% 4.0 mph SSW6.4 kmh SSW 9.0 mph14.5 kmh 30.28 in1025.4 mb 0.00 in0.0 mm 0.00 in/hr0.0 mm/hr 0.00 in0.0 mm
11:40 AM 18.1°F-7.7°C -5537.2°C 37% 3.0 mph WNW4.8 kmh WNW 9.0 mph14.5 kmh 30.27 in1025.1 mb 0.00 in0.0 mm 0.00 in/hr0.0 mm/hr 0.00 in0.0 mm
11:45 AM 18.1°F-7.7°C -5537.2°C 35% 8.0 mph WSW12.9 kmh WSW 11.0 mph17.7 kmh 30.28 in1025.4 mb 0.00 in0.0 mm 0.00 in/hr0.0 mm/hr 0.00 in0.0 mm
11:50 AM 17.9°F-7.8°C -5537.2°C 35% 4.0 mph SSW6.4 kmh SSW 13.0 mph20.9 kmh 30.27 in1025.1 mb 0.00 in0.0 mm 0.00 in/hr0.0 mm/hr 0.00 in0.0 mm
11:55 AM 18.1°F-7.7°C -5537.2°C 35% 4.0 mph SSW6.4 kmh SSW 11.0 mph17.7 kmh 30.27 in1025.1 mb 0.00 in0.0 mm 0.00 in/hr0.0 mm/hr 0.00 in0.0 mm
12:00 PM 18.1°F-7.7°C -5537.2°C 35% 3.0 mph WNW4.8 kmh WNW 8.0 mph12.9 kmh 30.26 in1024.7 mb 0.00 in0.0 mm 0.00 in/hr0.0 mm/hr 0.00 in0.0 mm
12:05 PM 18.3°F-7.6°C -5537.2°C 36% 4.0 mph NNE6.4 kmh NNE 11.0 mph17.7 kmh 30.26 in1024.7 mb 0.00 in0.0 mm 0.00 in/hr0.0 mm/hr 0.00 in0.0 mm
12:10 PM 18.5°F-7.5°C -4.0°F-20.0°C 36% 2.0 mph NNW3.2 kmh NNW 10.0 mph16.1 kmh 30.26 in1024.7 mb 0.00 in0.0 mm 0.00 in/hr0.0 mm/hr 0.00 in0.0 mm
12:15 PM 18.8°F-7.3°C -5537.2°C 34% 4.0 mph WNW6.4 kmh WNW 9.0 mph14.5 kmh 30.26 in1024.7 mb 0.00 in0.0 mm 0.00 in/hr0.0 mm/hr 0.00 in0.0 mm
12:20 PM 18.8°F-7.3°C -5537.2°C 34% 2.0 mph NW3.2 kmh NW 8.0 mph12.9 kmh 30.26 in1024.7 mb 0.00 in0.0 mm 0.00 in/hr0.0 mm/hr 0.00 in0.0 mm
12:25 PM 19.0°F-7.2°C -5537.2°C 33% 7.0 mph NNW11.3 kmh NNW 11.0 mph17.7 kmh 30.25 in1024.4 mb 0.00 in0.0 mm 0.00 in/hr0.0 mm/hr 0.00 in0.0 mm
12:30 PM 19.4°F-7.0°C -5537.2°C 37% 4.0 mph 6.4 kmh 7.0 mph11.3 kmh 30.25 in1024.4 mb 0.00 in0.0 mm 0.00 in/hr0.0 mm/hr 0.00 in0.0 mm
12:35 PM 19.5°F-6.9°C -5537.2°C 38% 4.0 mph NNW6.4 kmh NNW 8.0 mph12.9 kmh 30.26 in1024.7 mb 0.00 in0.0 mm 0.00 in/hr0.0 mm/hr 0.00 in0.0 mm
12:40 PM 19.5°F-6.9°C -3.0°F-19.4°C 36% 4.0 mph NNE6.4 kmh NNE 7.0 mph11.3 kmh 30.25 in1024.4 mb 0.00 in0.0 mm 0.00 in/hr0.0 mm/hr 0.00 in0.0 mm
12:45 PM 19.7°F-6.8°C -5537.2°C 36% 2.0 mph SSW3.2 kmh SSW 9.0 mph14.5 kmh 30.25 in1024.4 mb 0.00 in0.0 mm 0.00 in/hr0.0 mm/hr 0.00 in0.0 mm
12:50 PM 20.3°F-6.5°C -5537.2°C 37% 2.0 mph WNW3.2 kmh WNW 4.0 mph6.4 kmh 30.24 in1024.0 mb 0.00 in0.0 mm 0.00 in/hr0.0 mm/hr 0.00 in0.0 mm
12:55 PM 20.8°F-6.2°C -5537.2°C 36% 3.0 mph NNW4.8 kmh NNW 7.0 mph11.3 kmh 30.24 in1024.0 mb 0.00 in0.0 mm 0.00 in/hr0.0 mm/hr 0.00 in0.0 mm
01:00 PM 20.8°F-6.2°C -5537.2°C 35% 3.0 mph NNW4.8 kmh NNW 5.0 mph8.0 kmh 30.24 in1024.0 mb 0.00 in0.0 mm 0.00 in/hr0.0 mm/hr 0.00 in0.0 mm
01:05 PM 21.0°F-6.1°C -5537.2°C 35% 6.0 mph ENE9.7 kmh ENE 11.0 mph17.7 kmh 30.23 in1023.7 mb 0.00 in0.0 mm 0.00 in/hr0.0 mm/hr 0.00 in0.0 mm
01:10 PM 21.0°F-6.1°C -5537.2°C 35% 4.0 mph NNE6.4 kmh NNE 5.0 mph8.0 kmh 30.23 in1023.7 mb 0.00 in0.0 mm 0.00 in/hr0.0 mm/hr 0.00 in0.0 mm
01:15 PM 21.0°F-6.1°C -5537.2°C 35% 6.0 mph NW9.7 kmh NW 15.0 mph24.1 kmh 30.23 in1023.7 mb 0.00 in0.0 mm 0.00 in/hr0.0 mm/hr 0.00 in0.0 mm
01:20 PM 20.8°F-6.2°C -5537.2°C 35% 3.0 mph SSE4.8 kmh SSE 8.0 mph12.9 kmh 30.23 in1023.7 mb 0.00 in0.0 mm 0.00 in/hr0.0 mm/hr 0.00 in0.0 mm
01:25 PM 21.0°F-6.1°C -5537.2°C 35% 3.0 mph WNW4.8 kmh WNW 7.0 mph11.3 kmh 30.22 in1023.4 mb 0.00 in0.0 mm 0.00 in/hr0.0 mm/hr 0.00 in0.0 mm
01:30 PM 21.0°F-6.1°C -5537.2°C 35% 2.0 mph 3.2 kmh 9.0 mph14.5 kmh 30.21 in1023.0 mb 0.00 in0.0 mm 0.00 in/hr0.0 mm/hr 0.00 in0.0 mm
01:35 PM 21.5°F-5.8°C -5537.2°C 34% 2.0 mph SSW3.2 kmh SSW 6.0 mph9.7 kmh 30.21 in1023.0 mb 0.00 in0.0 mm 0.00 in/hr0.0 mm/hr 0.00 in0.0 mm
01:40 PM 21.7°F-5.7°C -5537.2°C 34% 2.0 mph WSW3.2 kmh WSW 8.0 mph12.9 kmh 30.21 in1023.0 mb 0.00 in0.0 mm 0.00 in/hr0.0 mm/hr 0.00 in0.0 mm
01:45 PM 21.9°F-5.6°C -5537.2°C 34% 3.0 mph NNE4.8 kmh NNE 5.0 mph8.0 kmh 30.21 in1023.0 mb 0.00 in0.0 mm 0.00 in/hr0.0 mm/hr 0.00 in0.0 mm
01:50 PM 22.4°F-5.3°C -5537.2°C 34% 1.0 mph ESE1.6 kmh ESE 3.0 mph4.8 kmh 30.20 in1022.7 mb 0.00 in0.0 mm 0.00 in/hr0.0 mm/hr 0.00 in0.0 mm
01:55 PM 22.8°F-5.1°C -5537.2°C 35% 7.0 mph WNW11.3 kmh WNW 11.0 mph17.7 kmh 30.21 in1023.0 mb 0.00 in0.0 mm 0.00 in/hr0.0 mm/hr 0.00 in0.0 mm
02:00 PM 22.8°F-5.1°C -5537.2°C 35% 3.0 mph NNE4.8 kmh NNE 8.0 mph12.9 kmh 30.21 in1023.0 mb 0.00 in0.0 mm 0.00 in/hr0.0 mm/hr 0.00 in0.0 mm
02:05 PM 22.6°F-5.2°C -5537.2°C 34% 4.0 mph NNW6.4 kmh NNW 9.0 mph14.5 kmh 30.21 in1023.0 mb 0.00 in0.0 mm 0.00 in/hr0.0 mm/hr 0.00 in0.0 mm
02:10 PM 22.4°F-5.3°C -5537.2°C 35% 2.0 mph W3.2 kmh W 7.0 mph11.3 kmh 30.22 in1023.4 mb 0.00 in0.0 mm 0.00 in/hr0.0 mm/hr 0.00 in0.0 mm
02:15 PM 22.6°F-5.2°C -5537.2°C 35% 3.0 mph WNW4.8 kmh WNW 8.0 mph12.9 kmh 30.21 in1023.0 mb 0.00 in0.0 mm 0.00 in/hr0.0 mm/hr 0.00 in0.0 mm
02:20 PM 22.4°F-5.3°C -5537.2°C 35% 2.0 mph SSW3.2 kmh SSW 7.0 mph11.3 kmh 30.22 in1023.4 mb 0.00 in0.0 mm 0.00 in/hr0.0 mm/hr 0.00 in0.0 mm
02:25 PM 22.8°F-5.1°C -5537.2°C 35% 2.0 mph NNW3.2 kmh NNW 6.0 mph9.7 kmh 30.21 in1023.0 mb 0.00 in0.0 mm 0.00 in/hr0.0 mm/hr 0.00 in0.0 mm
02:30 PM 23.0°F-5.0°C 0.0°F-17.8°C 36% 2.0 mph WNW3.2 kmh WNW 4.0 mph6.4 kmh 30.21 in1023.0 mb 0.00 in0.0 mm 0.00 in/hr0.0 mm/hr 0.00 in0.0 mm
02:35 PM 23.1°F-4.9°C -5537.2°C 35% 3.0 mph W4.8 kmh W 11.0 mph17.7 kmh 30.21 in1023.0 mb 0.00 in0.0 mm 0.00 in/hr0.0 mm/hr 0.00 in0.0 mm
02:40 PM 23.0°F-5.0°C -5537.2°C 34% 1.0 mph ESE1.6 kmh ESE 6.0 mph9.7 kmh 30.21 in1023.0 mb 0.00 in0.0 mm 0.00 in/hr0.0 mm/hr 0.00 in0.0 mm
02:45 PM 23.1°F-4.9°C -5537.2°C 35% 1.0 mph NNE1.6 kmh NNE 6.0 mph9.7 kmh 30.20 in1022.7 mb 0.00 in0.0 mm 0.00 in/hr0.0 mm/hr 0.00 in0.0 mm
02:50 PM 23.1°F-4.9°C -1.0°F-18.3°C 34% 3.0 mph WNW4.8 kmh WNW 7.0 mph11.3 kmh 30.20 in1022.7 mb 0.00 in0.0 mm 0.00 in/hr0.0 mm/hr 0.00 in0.0 mm
02:55 PM 23.1°F-4.9°C -1.0°F-18.3°C 34% 2.0 mph SSE3.2 kmh SSE 4.0 mph6.4 kmh 30.20 in1022.7 mb 0.00 in0.0 mm 0.00 in/hr0.0 mm/hr 0.00 in0.0 mm
03:00 PM 22.8°F-5.1°C -5537.2°C 34% 3.0 mph NW4.8 kmh NW 15.0 mph24.1 kmh 30.21 in1023.0 mb 0.00 in0.0 mm 0.00 in/hr0.0 mm/hr 0.00 in0.0 mm
03:05 PM 22.2°F-5.4°C -5537.2°C 35% 3.0 mph NNW4.8 kmh NNW 13.0 mph20.9 kmh 30.21 in1023.0 mb 0.00 in0.0 mm 0.00 in/hr0.0 mm/hr 0.00 in0.0 mm
03:10 PM 22.1°F-5.5°C -5537.2°C 35% Calm Calm 7.0 mph11.3 kmh 30.21 in1023.0 mb 0.00 in0.0 mm 0.00 in/hr0.0 mm/hr 0.00 in0.0 mm
03:15 PM 22.1°F-5.5°C -5537.2°C 36% 2.0 mph WNW3.2 kmh WNW 4.0 mph6.4 kmh 30.21 in1023.0 mb 0.00 in0.0 mm 0.00 in/hr0.0 mm/hr 0.00 in0.0 mm
03:20 PM 22.2°F-5.4°C 0.0°F-17.8°C 37% 3.0 mph NNW4.8 kmh NNW 8.0 mph12.9 kmh 30.21 in1023.0 mb 0.00 in0.0 mm 0.00 in/hr0.0 mm/hr 0.00 in0.0 mm
03:25 PM 22.1°F-5.5°C 0.4°F-17.6°C 38% 1.0 mph SE1.6 kmh SE 8.0 mph12.9 kmh 30.21 in1023.0 mb 0.00 in0.0 mm 0.00 in/hr0.0 mm/hr 0.00 in0.0 mm
03:30 PM 22.1°F-5.5°C 0.4°F-17.6°C 38% 3.0 mph WSW4.8 kmh WSW 4.0 mph6.4 kmh 30.21 in1023.0 mb 0.00 in0.0 mm 0.00 in/hr0.0 mm/hr 0.00 in0.0 mm
03:35 PM 21.9°F-5.6°C 0.2°F-17.7°C 38% 2.0 mph WNW3.2 kmh WNW 10.0 mph16.1 kmh 30.21 in1023.0 mb 0.00 in0.0 mm 0.00 in/hr0.0 mm/hr 0.00 in0.0 mm
03:40 PM 21.9°F-5.6°C 0.2°F-17.7°C 38% 2.0 mph NNE3.2 kmh NNE 6.0 mph9.7 kmh 30.21 in1023.0 mb 0.00 in0.0 mm 0.00 in/hr0.0 mm/hr 0.00 in0.0 mm
03:45 PM 21.9°F-5.6°C 0.2°F-17.7°C 38% 6.0 mph NNW9.7 kmh NNW 8.0 mph12.9 kmh 30.20 in1022.7 mb 0.00 in0.0 mm 0.00 in/hr0.0 mm/hr 0.00 in0.0 mm
03:50 PM 21.9°F-5.6°C 0.2°F-17.7°C 38% 1.0 mph WNW1.6 kmh WNW 4.0 mph6.4 kmh 30.20 in1022.7 mb 0.00 in0.0 mm 0.00 in/hr0.0 mm/hr 0.00 in0.0 mm
03:55 PM 21.9°F-5.6°C 0.2°F-17.7°C 38% 6.0 mph SW9.7 kmh SW 8.0 mph12.9 kmh 30.20 in1022.7 mb 0.00 in0.0 mm 0.00 in/hr0.0 mm/hr 0.00 in0.0 mm
04:00 PM 22.1°F-5.5°C 0.9°F-17.3°C 39% 3.0 mph WSW4.8 kmh WSW 4.0 mph6.4 kmh 30.21 in1023.0 mb 0.00 in0.0 mm 0.00 in/hr0.0 mm/hr 0.00 in0.0 mm
04:05 PM 22.1°F-5.5°C 0.9°F-17.3°C 39% 1.0 mph W1.6 kmh W 3.0 mph4.8 kmh 30.20 in1022.7 mb 0.00 in0.0 mm 0.00 in/hr0.0 mm/hr 0.00 in0.0 mm
04:10 PM 21.9°F-5.6°C 1.8°F-16.8°C 41% 2.0 mph WNW3.2 kmh WNW 5.0 mph8.0 kmh 30.20 in1022.7 mb 0.00 in0.0 mm 0.00 in/hr0.0 mm/hr 0.00 in0.0 mm
04:15 PM 21.9°F-5.6°C 1.3°F-17.1°C 40% 3.0 mph WNW4.8 kmh WNW 4.0 mph6.4 kmh 30.20 in1022.7 mb 0.00 in0.0 mm 0.00 in/hr0.0 mm/hr 0.00 in0.0 mm
04:20 PM 21.7°F-5.7°C 1.7°F-16.8°C 41% 1.0 mph SSE1.6 kmh SSE 7.0 mph11.3 kmh 30.20 in1022.7 mb 0.00 in0.0 mm 0.00 in/hr0.0 mm/hr 0.00 in0.0 mm
04:25 PM 21.7°F-5.7°C 1.7°F-16.8°C 41% 3.0 mph SW4.8 kmh SW 4.0 mph6.4 kmh 30.21 in1023.0 mb 0.00 in0.0 mm 0.00 in/hr0.0 mm/hr 0.00 in0.0 mm
04:30 PM 21.7°F-5.7°C 1.7°F-16.8°C 41% Calm Calm 4.0 mph6.4 kmh 30.21 in1023.0 mb 0.00 in0.0 mm 0.00 in/hr0.0 mm/hr 0.00 in0.0 mm
04:35 PM 21.7°F-5.7°C 1.7°F-16.8°C 41% 4.0 mph NW6.4 kmh NW 7.0 mph11.3 kmh 30.21 in1023.0 mb 0.00 in0.0 mm 0.00 in/hr0.0 mm/hr 0.00 in0.0 mm
04:40 PM 21.5°F-5.8°C 1.5°F-16.9°C 41% 2.0 mph NNW3.2 kmh NNW 8.0 mph12.9 kmh 30.21 in1023.0 mb 0.00 in0.0 mm 0.00 in/hr0.0 mm/hr 0.00 in0.0 mm
04:45 PM 21.3°F-5.9°C 1.3°F-17.1°C 41% Calm Calm 1.0 mph1.6 kmh 30.21 in1023.0 mb 0.00 in0.0 mm 0.00 in/hr0.0 mm/hr 0.00 in0.0 mm
04:50 PM 21.0°F-6.1°C 2.0°F-16.7°C 43% 1.0 mph S1.6 kmh S 2.0 mph3.2 kmh 30.21 in1023.0 mb 0.00 in0.0 mm 0.00 in/hr0.0 mm/hr 0.00 in0.0 mm
04:55 PM 20.8°F-6.2°C 1.9°F-16.7°C 43% 1.0 mph WSW1.6 kmh WSW 7.0 mph11.3 kmh 30.21 in1023.0 mb 0.00 in0.0 mm 0.00 in/hr0.0 mm/hr 0.00 in0.0 mm
05:00 PM 20.6°F-6.3°C 1.7°F-16.8°C 43% Calm Calm 3.0 mph4.8 kmh 30.21 in1023.0 mb 0.00 in0.0 mm 0.00 in/hr0.0 mm/hr 0.00 in0.0 mm
05:05 PM 20.4°F-6.4°C 1.5°F-16.9°C 43% Calm Calm 2.0 mph3.2 kmh 30.22 in1023.4 mb 0.00 in0.0 mm 0.00 in/hr0.0 mm/hr 0.00 in0.0 mm
05:10 PM 20.1°F-6.6°C 1.2°F-17.1°C 43% Calm Calm 2.0 mph3.2 kmh 30.22 in1023.4 mb 0.00 in0.0 mm 0.00 in/hr0.0 mm/hr 0.00 in0.0 mm
05:15 PM 19.7°F-6.8°C 1.4°F-17.0°C 44% Calm Calm 2.0 mph3.2 kmh 30.22 in1023.4 mb 0.00 in0.0 mm 0.00 in/hr0.0 mm/hr 0.00 in0.0 mm
05:20 PM 19.5°F-6.9°C 1.2°F-17.1°C 44% Calm Calm 1.0 mph1.6 kmh 30.22 in1023.4 mb 0.00 in0.0 mm 0.00 in/hr0.0 mm/hr 0.00 in0.0 mm
05:25 PM 19.4°F-7.0°C 1.0°F-17.2°C 44% Calm Calm 1.0 mph1.6 kmh 30.22 in1023.4 mb 0.00 in0.0 mm 0.00 in/hr0.0 mm/hr 0.00 in0.0 mm
05:30 PM 19.0°F-7.2°C -5537.2°C 40% Calm Calm 2.0 mph3.2 kmh 30.22 in1023.4 mb 0.00 in0.0 mm 0.00 in/hr0.0 mm/hr 0.00 in0.0 mm
05:35 PM 19.0°F-7.2°C -5537.2°C 40% Calm Calm 2.0 mph3.2 kmh 30.22 in1023.4 mb 0.00 in0.0 mm 0.00 in/hr0.0 mm/hr 0.00 in0.0 mm
05:40 PM 18.8°F-7.3°C -1.0°F-18.3°C 41% 1.0 mph NNW1.6 kmh NNW 2.0 mph3.2 kmh 30.22 in1023.4 mb 0.00 in0.0 mm 0.00 in/hr0.0 mm/hr 0.00 in0.0 mm
05:45 PM 18.6°F-7.4°C -5537.2°C 41% Calm Calm 2.0 mph3.2 kmh 30.22 in1023.4 mb 0.00 in0.0 mm 0.00 in/hr0.0 mm/hr 0.00 in0.0 mm
05:50 PM 18.6°F-7.4°C -5537.2°C 41% Calm Calm 2.0 mph3.2 kmh 30.22 in1023.4 mb 0.00 in0.0 mm 0.00 in/hr0.0 mm/hr 0.00 in0.0 mm
05:55 PM 18.5°F-7.5°C -5537.2°C 40% Calm Calm 2.0 mph3.2 kmh 30.23 in1023.7 mb 0.00 in0.0 mm 0.00 in/hr0.0 mm/hr 0.00 in0.0 mm
06:00 PM 18.5°F-7.5°C -5537.2°C 40% Calm Calm 2.0 mph3.2 kmh 30.23 in1023.7 mb 0.00 in0.0 mm 0.00 in/hr0.0 mm/hr 0.00 in0.0 mm
06:05 PM 18.3°F-7.6°C -2.0°F-18.9°C 40% Calm Calm 2.0 mph3.2 kmh 30.24 in1024.0 mb 0.00 in0.0 mm 0.00 in/hr0.0 mm/hr 0.00 in0.0 mm
06:10 PM 18.3°F-7.6°C -5537.2°C 41% Calm Calm 2.0 mph3.2 kmh 30.24 in1024.0 mb 0.00 in0.0 mm 0.00 in/hr0.0 mm/hr 0.00 in0.0 mm
06:15 PM 18.1°F-7.7°C -5537.2°C 41% Calm Calm 1.0 mph1.6 kmh 30.24 in1024.0 mb 0.00 in0.0 mm 0.00 in/hr0.0 mm/hr 0.00 in0.0 mm
06:20 PM 17.9°F-7.8°C -5537.2°C 41% Calm Calm 2.0 mph3.2 kmh 30.24 in1024.0 mb 0.00 in0.0 mm 0.00 in/hr0.0 mm/hr 0.00 in0.0 mm
06:25 PM 17.9°F-7.8°C -5537.2°C 41% 1.0 mph NNW1.6 kmh NNW 3.0 mph4.8 kmh 30.23 in1023.7 mb 0.00 in0.0 mm 0.00 in/hr0.0 mm/hr 0.00 in0.0 mm
06:30 PM 18.1°F-7.7°C -5537.2°C 42% 1.0 mph NNW1.6 kmh NNW 3.0 mph4.8 kmh 30.24 in1024.0 mb 0.00 in0.0 mm 0.00 in/hr0.0 mm/hr 0.00 in0.0 mm
06:35 PM 17.9°F-7.8°C -5537.2°C 42% Calm Calm 2.0 mph3.2 kmh 30.24 in1024.0 mb 0.00 in0.0 mm 0.00 in/hr0.0 mm/hr 0.00 in0.0 mm
06:40 PM 17.9°F-7.8°C -5537.2°C 42% Calm Calm 2.0 mph3.2 kmh 30.24 in1024.0 mb 0.00 in0.0 mm 0.00 in/hr0.0 mm/hr 0.00 in0.0 mm
06:45 PM 17.7°F-7.9°C -5537.2°C 41% 1.0 mph 1.6 kmh 2.0 mph3.2 kmh 30.24 in1024.0 mb 0.00 in0.0 mm 0.00 in/hr0.0 mm/hr 0.00 in0.0 mm
06:50 PM 17.9°F-7.8°C -5537.2°C 41% Calm Calm 2.0 mph3.2 kmh 30.24 in1024.0 mb 0.00 in0.0 mm 0.00 in/hr0.0 mm/hr 0.00 in0.0 mm
06:55 PM 17.9°F-7.8°C -5537.2°C 41% Calm Calm 3.0 mph4.8 kmh 30.25 in1024.4 mb 0.00 in0.0 mm 0.00 in/hr0.0 mm/hr 0.00 in0.0 mm